Time;durP1;ratioP1;P1;durP2;ratioP2;P2;SDS_P1;SDS_P2;PMS_P1;PMS_P2;Temp;Humidity;BMP_temperature;BMP_pressure;BME280_temperature;BME280_humidity;BME280_pressure;Samples;Min_cycle;Max_cycle;Signal;HPM_P1;HPM_P2
2022/08/01 00:00:21;;;;;;;4.32;3.80;;;19.60;99.90;;;;;;5048023;28;20025;-58
2022/08/01 00:02:47;;;;;;;7.50;4.22;;;19.50;99.90;;;;;;5049716;28;20025;-59
2022/08/01 00:05:13;;;;;;;4.97;4.57;;;19.40;99.90;;;;;;5048937;28;20029;-58
2022/08/01 00:07:39;;;;;;;4.13;3.65;;;19.30;99.90;;;;;;5049159;28;20033;-58
2022/08/01 00:10:07;;;;;;;3.97;3.67;;;19.30;99.90;;;;;;5047916;28;20508;-59
2022/08/01 00:12:33;;;;;;;5.65;4.05;;;19.20;99.90;;;;;;5048220;28;20031;-59
2022/08/01 00:15:00;;;;;;;4.50;4.20;;;19.10;99.90;;;;;;5048677;28;20021;-58
2022/08/01 00:17:26;;;;;;;3.88;3.58;;;19.00;99.90;;;;;;5049212;28;20029;-57
2022/08/01 00:19:51;;;;;;;6.95;3.85;;;19.00;99.90;;;;;;5048505;28;20029;-57
2022/08/01 00:22:17;;;;;;;3.75;3.42;;;18.90;99.90;;;;;;5049327;28;20108;-58
2022/08/01 00:24:43;;;;;;;4.75;3.67;;;18.90;99.90;;;;;;5048217;28;20044;-58
2022/08/01 00:27:09;;;;;;;6.88;4.10;;;18.80;99.90;;;;;;5048118;28;20499;-59
2022/08/01 00:29:34;;;;;;;4.88;4.30;;;18.80;99.90;;;;;;5048077;28;20587;-58
2022/08/01 00:32:00;;;;;;;4.10;3.80;;;18.80;99.90;;;;;;5048510;28;20400;-58
2022/08/01 00:34:26;;;;;;;4.45;4.05;;;18.80;99.90;;;;;;5048683;28;20503;-58
2022/08/01 00:36:51;;;;;;;5.40;4.35;;;18.70;99.90;;;;;;5048508;28;20116;-57
2022/08/01 00:39:17;;;;;;;3.78;3.47;;;18.70;99.90;;;;;;5047836;28;20049;-58
2022/08/01 00:41:42;;;;;;;4.53;4.22;;;18.60;99.90;;;;;;5046812;28;20060;-58
2022/08/01 00:44:08;;;;;;;7.28;4.68;;;18.50;99.90;;;;;;5048179;28;20125;-59
2022/08/01 00:46:34;;;;;;;7.65;4.70;;;18.50;99.90;;;;;;5047879;28;20020;-58
2022/08/01 00:49:00;;;;;;;5.53;5.00;;;18.50;99.90;;;;;;5048337;28;20025;-58
2022/08/01 00:51:26;;;;;;;5.40;4.90;;;18.50;99.90;;;;;;5047159;28;20033;-58
2022/08/01 00:53:53;;;;;;;4.85;4.55;;;18.50;99.90;;;;;;5048803;28;20104;-58
2022/08/01 00:56:20;;;;;;;4.60;4.30;;;18.50;99.90;;;;;;5047919;28;20095;-59
2022/08/01 00:58:47;;;;;;;6.72;4.93;;;18.50;99.90;;;;;;5047763;28;20104;-57
2022/08/01 01:01:13;;;;;;;5.35;4.63;;;18.40;99.90;;;;;;5049025;28;20021;-59
2022/08/01 01:03:38;;;;;;;7.18;5.10;;;18.40;99.90;;;;;;5047591;28;20036;-58
2022/08/01 01:06:14;;;;;;;7.35;5.15;;;18.30;99.90;;;;;;5050530;28;20033;-59
2022/08/01 01:09:02;;;;;;;6.53;4.93;;;18.20;99.90;;;;;;5050205;28;20033;-57
2022/08/01 01:12:02;;;;;;;4.57;4.28;;;18.20;99.90;;;;;;5051321;28;20029;-58
2022/08/01 01:15:06;;;;;;;5.05;4.53;;;18.20;99.90;;;;;;5006855;28;20091;-58
2022/08/01 01:17:46;;;;;;;5.47;5.03;;;18.10;99.90;;;;;;5041569;28;20045;-58
2022/08/01 01:20:13;;;;;;;6.55;5.55;;;18.20;99.90;;;;;;5051333;28;20288;-59
2022/08/01 01:23:02;;;;;;;4.70;4.30;;;18.10;99.90;;;;;;5052530;28;20465;-57
2022/08/01 01:25:37;;;;;;;5.13;4.82;;;18.10;99.90;;;;;;5010383;28;20099;-58
2022/08/01 01:28:15;;;;;;;5.65;5.25;;;18.00;99.90;;;;;;5051131;28;20092;-58
2022/08/01 01:30:43;;;;;;;5.97;5.38;;;18.00;99.90;;;;;;5051172;28;20029;-57
2022/08/01 01:33:10;;;;;;;5.85;5.43;;;17.90;99.90;;;;;;5051162;28;20100;-58
2022/08/01 01:35:41;;;;;;;5.72;5.32;;;17.80;99.90;;;;;;5051939;28;20141;-57
2022/08/01 01:38:27;;;;;;;5.55;5.15;;;17.80;99.90;;;;;;5049660;28;20084;-58
2022/08/01 01:40:55;;;;;;;5.95;5.45;;;17.70;99.90;;;;;;5050118;28;20025;-58
2022/08/01 01:43:23;;;;;;;5.35;4.95;;;17.70;99.90;;;;;;5050184;28;20108;-58
2022/08/01 01:45:50;;;;;;;6.25;5.80;;;17.70;99.90;;;;;;5051361;28;20026;-57
2022/08/01 01:48:19;;;;;;;5.80;5.30;;;17.60;99.90;;;;;;5050943;28;20083;-57
2022/08/01 01:50:49;;;;;;;5.75;5.25;;;17.60;99.90;;;;;;5051738;28;20059;-58
2022/08/01 01:53:18;;;;;;;4.88;4.55;;;17.60;99.90;;;;;;5051318;28;20025;-59
2022/08/01 01:55:47;;;;;;;5.85;5.45;;;17.60;99.90;;;;;;5051637;28;20029;-57
2022/08/01 01:58:14;;;;;;;6.10;5.68;;;17.50;99.90;;;;;;5051600;28;20095;-57
2022/08/01 02:00:43;;;;;;;5.80;5.32;;;17.50;99.90;;;;;;5050477;28;20113;-58
2022/08/01 02:03:11;;;;;;;6.38;5.90;;;17.50;99.90;;;;;;5051116;28;20037;-59
2022/08/01 02:05:38;;;;;;;14.63;6.10;;;17.40;99.90;;;;;;5050526;28;20484;-57
2022/08/01 02:08:05;;;;;;;6.28;5.78;;;17.40;99.90;;;;;;5051710;28;20021;-59
2022/08/01 02:10:32;;;;;;;5.68;5.18;;;17.30;99.90;;;;;;5049704;28;20029;-57
2022/08/01 02:13:01;;;;;;;13.95;6.07;;;17.30;99.90;;;;;;5048915;28;20033;-58
2022/08/01 02:15:27;;;;;;;6.63;6.07;;;17.30;99.90;;;;;;5048721;28;20025;-57
2022/08/01 02:17:56;;;;;;;6.13;5.63;;;17.30;99.90;;;;;;5048875;28;20444;-58
2022/08/01 02:20:22;;;;;;;7.90;7.00;;;17.30;99.90;;;;;;5050559;28;20090;-59
2022/08/01 02:22:53;;;;;;;7.50;6.75;;;17.30;99.90;;;;;;5050112;28;20103;-59
2022/08/01 02:25:26;;;;;;;6.20;5.65;;;17.30;99.90;;;;;;5051172;28;20024;-58
2022/08/01 02:28:01;;;;;;;6.47;5.88;;;17.20;99.90;;;;;;5049312;28;20037;-58
2022/08/01 02:30:31;;;;;;;6.75;6.18;;;17.20;99.90;;;;;;5049969;28;20029;-57
2022/08/01 02:33:05;;;;;;;6.30;5.60;;;17.10;99.90;;;;;;5049618;28;20029;-57
2022/08/01 02:35:34;;;;;;;6.30;5.78;;;17.10;99.90;;;;;;5049575;28;20029;-58
2022/08/01 02:38:03;;;;;;;6.97;6.47;;;17.00;99.90;;;;;;5049657;28;20070;-58
2022/08/01 02:40:32;;;;;;;8.15;7.55;;;17.00;99.90;;;;;;5049307;28;20101;-58
2022/08/01 02:43:01;;;;;;;7.53;6.90;;;16.90;99.90;;;;;;5049185;28;20092;-59
2022/08/01 02:45:27;;;;;;;6.28;5.68;;;16.90;99.90;;;;;;5048559;28;20036;-58
2022/08/01 02:48:00;;;;;;;6.10;5.60;;;16.80;99.90;;;;;;5049424;28;20060;-58
2022/08/01 02:50:28;;;;;;;5.70;5.30;;;16.80;99.90;;;;;;5050030;28;20029;-59
2022/08/01 02:52:55;;;;;;;6.03;5.53;;;16.60;99.90;;;;;;5047699;28;20025;-58
2022/08/01 02:55:22;;;;;;;5.90;5.43;;;16.60;99.90;;;;;;5049942;28;20033;-58
2022/08/01 02:57:51;;;;;;;6.40;5.90;;;16.50;99.90;;;;;;5048980;28;20097;-57
2022/08/01 03:00:17;;;;;;;6.57;6.10;;;16.40;99.90;;;;;;5050285;28;20029;-57
2022/08/01 03:02:44;;;;;;;6.63;6.13;;;16.40;99.90;;;;;;5048871;28;20488;-57
2022/08/01 03:05:12;;;;;;;6.85;6.30;;;16.30;99.90;;;;;;5050136;28;20021;-59
2022/08/01 03:07:40;;;;;;;7.13;6.63;;;16.30;99.90;;;;;;5049906;28;20096;-58
2022/08/01 03:10:08;;;;;;;6.82;6.43;;;16.30;99.90;;;;;;5048404;28;20400;-57
2022/08/01 03:12:36;;;;;;;6.90;6.40;;;16.30;99.90;;;;;;5049143;28;20107;-58
2022/08/01 03:15:04;;;;;;;7.57;6.82;;;16.20;99.90;;;;;;5048614;28;20048;-58
2022/08/01 03:17:31;;;;;;;8.57;7.97;;;16.20;99.90;;;;;;5049743;28;20476;-59
2022/08/01 03:20:00;;;;;;;9.13;8.43;;;16.20;99.90;;;;;;5047897;28;20021;-57
2022/08/01 03:22:28;;;;;;;9.18;8.48;;;16.10;99.90;;;;;;5050480;28;20020;-58
2022/08/01 03:24:56;;;;;;;9.20;8.50;;;16.10;99.90;;;;;;5049930;28;20457;-58
2022/08/01 03:27:24;;;;;;;9.85;9.15;;;16.10;99.90;;;;;;5045566;28;20392;-58
2022/08/01 03:29:54;;;;;;;8.23;7.63;;;16.10;99.90;;;;;;5049312;28;20041;-58
2022/08/01 03:32:22;;;;;;;9.33;8.73;;;16.10;99.90;;;;;;5048448;28;20025;-57
2022/08/01 03:34:47;;;;;;;9.00;8.35;;;16.10;99.90;;;;;;5049586;28;20032;-58
2022/08/01 03:37:36;;;;;;;9.18;8.52;;;16.00;99.90;;;;;;5049085;28;20021;-59
2022/08/01 03:40:20;;;;;;;8.73;8.23;;;16.00;99.90;;;;;;5047022;28;20021;-58
2022/08/01 03:42:49;;;;;;;8.40;7.70;;;16.00;99.90;;;;;;5048399;28;20029;-58
2022/08/01 03:45:24;;;;;;;8.93;8.13;;;16.00;99.90;;;;;;5049163;28;20029;-58
2022/08/01 03:48:05;;;;;;;8.95;8.27;;;16.00;99.90;;;;;;5049166;28;20025;-58
2022/08/01 03:50:33;;;;;;;8.85;8.10;;;16.00;99.90;;;;;;5048246;28;20049;-58
2022/08/01 03:53:01;;;;;;;9.32;8.63;;;16.00;99.90;;;;;;5048748;28;20013;-59
2022/08/01 03:55:28;;;;;;;8.25;7.65;;;16.00;99.90;;;;;;5047924;28;20032;-58
2022/08/01 03:57:54;;;;;;;7.82;7.22;;;16.00;99.90;;;;;;5049267;28;20040;-58
2022/08/01 04:00:24;;;;;;;9.18;8.38;;;16.00;99.90;;;;;;5045377;28;20030;-59
2022/08/01 04:02:50;;;;;;;8.43;7.63;;;16.00;99.90;;;;;;5046136;28;20036;-58
2022/08/01 04:05:16;;;;;;;8.77;8.10;;;16.00;99.90;;;;;;5049172;28;20381;-59
2022/08/01 04:07:46;;;;;;;9.20;8.50;;;16.00;99.90;;;;;;5048483;28;20079;-60
2022/08/01 04:10:12;;;;;;;9.63;8.93;;;15.90;99.90;;;;;;5048626;28;20040;-59
2022/08/01 04:12:38;;;;;;;8.93;8.30;;;15.80;99.90;;;;;;5046714;28;20111;-58
2022/08/01 04:15:05;;;;;;;9.45;8.82;;;15.70;99.90;;;;;;5048852;28;20029;-58
2022/08/01 04:17:31;;;;;;;9.23;8.65;;;15.70;99.90;;;;;;5029912;28;20060;-59
2022/08/01 04:19:56;;;;;;;8.85;8.25;;;15.70;99.90;;;;;;5047924;28;20048;-59
2022/08/01 04:22:22;;;;;;;9.82;8.80;;;15.70;99.90;;;;;;5048950;28;20666;-60
2022/08/01 04:24:53;;;;;;;8.40;7.72;;;15.80;99.90;;;;;;5063506;28;20489;-58
2022/08/01 04:27:28;;;;;;;8.77;8.18;;;15.90;99.90;;;;;;5048878;28;20116;-59
2022/08/01 04:29:58;;;;;;;9.10;8.30;;;16.00;99.90;;;;;;5048363;28;20095;-58
2022/08/01 04:32:27;;;;;;;8.38;7.78;;;16.20;99.90;;;;;;5047848;28;20032;-58
2022/08/01 04:34:55;;;;;;;9.68;8.85;;;16.30;99.90;;;;;;5047826;28;20632;-59
2022/08/01 04:37:23;;;;;;;9.45;8.52;;;16.40;99.90;;;;;;5048955;28;20467;-59
2022/08/01 04:39:52;;;;;;;8.68;7.97;;;16.40;99.90;;;;;;5047798;28;20377;-60
2022/08/01 04:42:18;;;;;;;8.23;7.63;;;16.50;99.90;;;;;;5049876;28;20036;-58
2022/08/01 04:44:44;;;;;;;8.05;7.45;;;16.50;99.90;;;;;;5052565;28;20033;-60
2022/08/01 04:47:11;;;;;;;7.57;7.05;;;16.50;99.90;;;;;;5052054;28;20048;-59
2022/08/01 04:49:37;;;;;;;7.40;6.72;;;16.50;99.90;;;;;;5051697;28;20164;-58
2022/08/01 04:52:03;;;;;;;7.35;6.85;;;16.60;99.90;;;;;;5051265;28;20112;-59
2022/08/01 04:54:36;;;;;;;7.43;6.72;;;16.60;99.90;;;;;;5051757;28;20037;-58
2022/08/01 04:57:03;;;;;;;8.05;7.35;;;16.70;99.90;;;;;;5051347;28;20044;-58
2022/08/01 04:59:39;;;;;;;10.85;9.07;;;16.80;99.90;;;;;;5052248;28;20025;-59
2022/08/01 05:02:06;;;;;;;8.55;7.85;;;17.00;99.90;;;;;;5052136;28;20032;-59
2022/08/01 05:04:32;;;;;;;8.43;7.82;;;17.10;99.90;;;;;;5052511;28;20021;-58
2022/08/01 05:07:08;;;;;;;8.55;7.78;;;17.30;99.90;;;;;;5052194;28;20025;-58
2022/08/01 05:09:34;;;;;;;8.38;7.68;;;17.50;99.90;;;;;;5051780;28;20503;-60
2022/08/01 05:12:01;;;;;;;8.75;7.53;;;17.70;99.90;;;;;;5052084;28;20156;-60
2022/08/01 05:14:28;;;;;;;6.75;6.15;;;18.00;99.90;;;;;;5051399;28;20104;-58
2022/08/01 05:16:54;;;;;;;8.57;5.78;;;18.30;99.90;;;;;;5051607;28;20032;-61
2022/08/01 05:19:21;;;;;;;6.07;5.68;;;18.60;99.90;;;;;;5052719;28;20033;-62
2022/08/01 05:21:46;;;;;;;6.22;5.72;;;18.90;99.90;;;;;;5050885;28;20362;-63
2022/08/01 05:24:12;;;;;;;5.68;5.22;;;19.20;99.90;;;;;;5051491;28;20037;-61
2022/08/01 05:26:39;;;;;;;6.10;5.60;;;19.40;99.90;;;;;;5050917;28;20025;-61
2022/08/01 05:29:04;;;;;;;9.02;5.20;;;19.60;99.90;;;;;;5051508;28;20067;-60
2022/08/01 05:31:33;;;;;;;4.72;4.32;;;19.70;99.90;;;;;;5052276;28;20025;-62
2022/08/01 05:34:00;;;;;;;6.88;4.60;;;19.90;99.90;;;;;;5052108;28;20049;-58
2022/08/01 05:36:26;;;;;;;6.15;4.07;;;20.10;99.90;;;;;;5051561;28;20029;-58
2022/08/01 05:38:52;;;;;;;4.03;3.25;;;20.20;99.90;;;;;;5051250;28;20036;-60
2022/08/01 05:41:17;;;;;;;3.85;3.17;;;20.20;99.90;;;;;;5051021;28;20049;-58
2022/08/01 05:43:43;;;;;;;4.13;3.70;;;20.20;99.90;;;;;;5051058;28;20431;-60
2022/08/01 05:46:09;;;;;;;3.65;3.35;;;20.30;99.90;;;;;;5050809;28;20041;-58
2022/08/01 05:48:34;;;;;;;3.00;2.70;;;20.30;99.90;;;;;;5050744;28;20025;-57
2022/08/01 05:51:00;;;;;;;3.97;2.85;;;20.40;99.90;;;;;;5049875;28;20028;-57
2022/08/01 05:53:26;;;;;;;2.65;2.33;;;20.50;99.90;;;;;;5050793;28;20037;-57
2022/08/01 05:55:52;;;;;;;2.92;2.72;;;20.70;99.90;;;;;;5051355;28;20484;-58
2022/08/01 05:58:17;;;;;;;3.55;3.25;;;21.00;99.90;;;;;;5051813;28;20033;-58
2022/08/01 06:00:43;;;;;;;3.75;2.67;;;21.90;99.90;;;;;;5050913;28;20424;-59
2022/08/01 06:03:11;;;;;;;4.10;2.15;;;23.00;99.90;;;;;;5051201;28;20602;-58
2022/08/01 06:05:37;;;;;;;1.90;1.80;;;24.40;99.90;;;;;;5050380;28;20112;-59
2022/08/01 06:08:03;;;;;;;2.17;1.70;;;25.80;99.90;;;;;;5050725;28;20434;-60
2022/08/01 06:10:29;;;;;;;2.90;1.70;;;27.30;99.90;;;;;;5051088;28;20099;-58
2022/08/01 06:12:55;;;;;;;3.45;1.70;;;28.40;92.80;;;;;;5048577;28;20489;-60
2022/08/01 06:15:20;;;;;;;4.97;1.60;;;29.40;80.40;;;;;;5050501;28;20037;-59
2022/08/01 06:17:46;;;;;;;3.20;1.58;;;30.50;71.90;;;;;;5050119;28;20056;-59
2022/08/01 06:20:12;;;;;;;1.38;1.20;;;31.20;67.00;;;;;;5050689;28;20052;-59
2022/08/01 06:22:37;;;;;;;1.52;1.33;;;31.70;63.40;;;;;;5050806;28;20112;-60
2022/08/01 06:25:04;;;;;;;1.52;1.30;;;31.60;62.30;;;;;;5051005;28;20029;-64
2022/08/01 06:27:29;;;;;;;1.27;1.15;;;31.10;62.60;;;;;;5048183;28;20025;-60
2022/08/01 06:29:56;;;;;;;1.20;1.10;;;29.90;65.10;;;;;;5050755;28;20033;-60
2022/08/01 06:32:26;;;;;;;1.35;1.02;;;28.80;70.10;;;;;;5050014;28;20088;-59
2022/08/01 06:34:52;;;;;;;1.95;1.20;;;28.00;78.00;;;;;;5050513;28;20029;-60
2022/08/01 06:37:18;;;;;;;1.30;1.20;;;27.00;92.40;;;;;;5051046;28;20052;-60
2022/08/01 06:39:43;;;;;;;3.65;1.35;;;26.40;99.90;;;;;;5050962;28;20041;-60
2022/08/01 06:42:09;;;;;;;1.23;1.20;;;26.00;99.90;;;;;;5049545;28;20044;-59
2022/08/01 06:44:35;;;;;;;2.05;1.30;;;25.70;99.90;;;;;;5049745;28;20079;-59
2022/08/01 06:47:01;;;;;;;1.52;1.33;;;25.60;99.90;;;;;;5050112;28;20402;-61
2022/08/01 06:49:27;;;;;;;2.85;1.45;;;25.40;99.90;;;;;;5050998;28;20021;-60
2022/08/01 06:51:52;;;;;;;1.50;1.40;;;25.20;99.90;;;;;;5049621;28;20025;-63
2022/08/01 06:54:18;;;;;;;3.28;1.50;;;25.00;99.90;;;;;;5050611;28;20033;-64
2022/08/01 06:56:44;;;;;;;3.17;1.50;;;24.70;99.90;;;;;;5049034;28;20044;-59
2022/08/01 06:59:09;;;;;;;3.88;1.60;;;24.50;99.90;;;;;;5050304;28;20527;-60
2022/08/01 07:01:35;;;;;;;2.13;1.60;;;24.40;99.90;;;;;;5050425;28;20384;-61
2022/08/01 07:04:02;;;;;;;1.70;1.60;;;24.20;99.90;;;;;;5049518;28;20035;-60
2022/08/01 07:06:28;;;;;;;1.48;1.30;;;24.20;99.90;;;;;;5049893;28;20183;-59
2022/08/01 07:08:54;;;;;;;3.70;1.50;;;24.10;99.90;;;;;;5048931;28;20555;-59
2022/08/01 07:11:20;;;;;;;1.85;1.55;;;24.00;99.90;;;;;;5049695;28;20029;-60
2022/08/01 07:13:46;;;;;;;2.17;1.50;;;24.20;99.90;;;;;;5048890;28;20023;-62
2022/08/01 07:16:16;;;;;;;1.50;1.40;;;24.40;99.90;;;;;;5049296;28;20412;-60
2022/08/01 07:18:41;;;;;;;2.33;1.20;;;25.20;99.90;;;;;;5047626;28;20492;-61
2022/08/01 07:21:07;;;;;;;1.67;1.40;;;26.50;99.90;;;;;;5049372;28;20033;-62
2022/08/01 07:23:34;;;;;;;1.83;1.30;;;27.30;96.30;;;;;;5049661;28;20112;-62
2022/08/01 07:26:01;;;;;;;2.40;1.30;;;27.40;95.70;;;;;;5047742;28;20024;-62
2022/08/01 07:28:30;;;;;;;1.40;1.30;;;27.10;98.60;;;;;;5050380;28;20025;-60
2022/08/01 07:30:56;;;;;;;1.70;1.55;;;27.00;99.40;;;;;;5048757;28;20389;-61
2022/08/01 07:33:22;;;;;;;5.53;1.20;;;26.80;99.90;;;;;;5049533;28;20033;-61
2022/08/01 07:35:48;;;;;;;1.23;1.13;;;26.90;97.30;;;;;;5048548;28;20031;-62
2022/08/01 07:38:14;;;;;;;1.67;1.08;;;26.90;95.30;;;;;;5048268;28;20033;-63
2022/08/01 07:40:40;;;;;;;1.05;0.93;;;27.30;95.60;;;;;;5049576;28;20021;-60
2022/08/01 07:43:06;;;;;;;1.13;1.02;;;27.80;91.50;;;;;;5049248;28;20531;-61
2022/08/01 07:45:31;;;;;;;1.30;1.10;;;28.10;85.10;;;;;;5049265;28;20052;-65
2022/08/01 07:48:02;;;;;;;1.20;1.10;;;28.40;82.80;;;;;;5049243;28;20112;-60
2022/08/01 07:50:28;;;;;;;1.20;1.10;;;28.70;78.00;;;;;;5045029;28;20082;-60
2022/08/01 07:52:54;;;;;;;1.20;1.00;;;28.40;77.00;;;;;;5047208;28;20021;-62
2022/08/01 07:55:19;;;;;;;2.95;1.30;;;28.20;78.50;;;;;;5045635;28;20040;-60
2022/08/01 07:57:45;;;;;;;3.85;1.23;;;28.10;79.80;;;;;;5048191;28;20025;-60
2022/08/01 08:00:11;;;;;;;3.90;1.15;;;28.00;79.30;;;;;;5048621;28;20040;-61
2022/08/01 08:02:39;;;;;;;1.10;1.00;;;27.80;82.10;;;;;;5048928;28;20029;-60
2022/08/01 08:05:07;;;;;;;1.10;1.00;;;27.80;83.50;;;;;;5047786;28;20029;-63
2022/08/01 08:07:32;;;;;;;1.50;1.10;;;27.80;81.20;;;;;;5049072;28;20124;-63
2022/08/01 08:09:58;;;;;;;1.10;1.00;;;27.60;82.20;;;;;;5047246;28;20120;-60
2022/08/01 08:12:24;;;;;;;1.80;1.10;;;27.40;86.70;;;;;;5046698;28;20037;-61
2022/08/01 08:14:50;;;;;;;1.58;0.95;;;27.30;90.20;;;;;;5047087;28;20036;-60
2022/08/01 08:17:15;;;;;;;2.83;1.20;;;27.20;90.90;;;;;;5047201;28;20043;-60
2022/08/01 08:19:41;;;;;;;1.20;1.10;;;27.00;91.50;;;;;;5049181;28;20464;-60
2022/08/01 08:22:08;;;;;;;1.17;0.90;;;26.80;92.50;;;;;;5047270;28;20072;-62
2022/08/01 08:24:34;;;;;;;2.35;1.00;;;26.50;94.80;;;;;;5046440;28;20036;-62
2022/08/01 08:27:01;;;;;;;2.65;1.40;;;26.40;97.80;;;;;;5046772;28;20040;-60
2022/08/01 08:29:32;;;;;;;1.48;1.30;;;26.20;99.90;;;;;;5047011;28;20163;-61
2022/08/01 08:31:58;;;;;;;1.45;1.35;;;26.30;99.90;;;;;;5046324;28;20117;-60
2022/08/01 08:34:25;;;;;;;0.85;0.85;;;26.70;98.00;;;;;;5047603;28;20064;-64
2022/08/01 08:36:51;;;;;;;5.80;1.15;;;27.30;93.70;;;;;;5047122;28;20044;-60
2022/08/01 08:39:17;;;;;;;3.33;0.80;;;28.00;83.80;;;;;;5046857;28;20120;-64
2022/08/01 08:41:43;;;;;;;1.23;1.00;;;28.50;77.40;;;;;;5044407;28;20208;-65
2022/08/01 08:44:10;;;;;;;3.92;1.20;;;28.60;75.40;;;;;;5047493;28;20112;-60
2022/08/01 08:46:48;;;;;;;3.22;1.23;;;28.40;76.60;;;;;;5044752;28;20544;-60
2022/08/01 08:49:25;;;;;;;1.48;1.20;;;28.30;77.70;;;;;;5047482;28;20037;-63
2022/08/01 08:51:52;;;;;;;2.40;1.00;;;28.10;81.60;;;;;;5047964;28;20029;-60
2022/08/01 08:54:21;;;;;;;1.13;1.10;;;27.50;84.00;;;;;;5045554;28;20124;-64
2022/08/01 08:56:47;;;;;;;1.20;1.10;;;27.20;91.80;;;;;;5046893;28;20041;-60
2022/08/01 08:59:14;;;;;;;1.50;1.20;;;27.00;96.10;;;;;;5045620;28;20056;-60
2022/08/01 09:01:40;;;;;;;1.65;1.10;;;27.00;93.40;;;;;;5047253;28;20048;-64
2022/08/01 09:04:06;;;;;;;2.25;1.25;;;27.00;94.40;;;;;;5046970;28;20439;-63
2022/08/01 09:06:33;;;;;;;2.00;1.17;;;26.90;95.30;;;;;;5046129;28;20045;-60
2022/08/01 09:08:59;;;;;;;1.88;1.30;;;26.70;96.60;;;;;;5046256;28;20037;-62
2022/08/01 09:11:25;;;;;;;1.40;1.30;;;26.60;94.30;;;;;;5047050;28;20500;-60
2022/08/01 09:14:14;;;;;;;1.27;1.10;;;26.50;97.10;;;;;;5045753;28;20028;-60
2022/08/01 09:16:44;;;;;;;1.40;1.30;;;26.30;99.90;;;;;;5045843;28;20491;-59
2022/08/01 09:19:13;;;;;;;1.83;1.30;;;26.30;99.90;;;;;;5047839;28;20041;-64
2022/08/01 09:21:54;;;;;;;2.05;1.00;;;26.50;99.90;;;;;;5046190;28;20029;-60
2022/08/01 09:24:20;;;;;;;2.03;1.10;;;27.50;99.90;;;;;;5048080;28;20037;-60
2022/08/01 09:26:46;;;;;;;2.45;1.13;;;28.70;83.20;;;;;;5048511;28;20557;-60
2022/08/01 09:29:19;;;;;;;0.90;0.90;;;29.90;72.90;;;;;;5049778;28;20033;-60
2022/08/01 09:31:46;;;;;;;1.23;1.05;;;30.70;69.10;;;;;;5051415;28;20017;-60
2022/08/01 09:34:12;;;;;;;1.35;1.00;;;30.90;64.80;;;;;;5050434;28;20045;-60
2022/08/01 09:36:46;;;;;;;3.25;0.95;;;30.70;63.80;;;;;;5050940;28;20091;-62
2022/08/01 09:39:13;;;;;;;1.30;0.93;;;30.40;64.70;;;;;;5051460;28;20377;-61
2022/08/01 09:41:39;;;;;;;1.83;1.15;;;29.80;66.50;;;;;;5049878;28;20021;-61
2022/08/01 09:44:05;;;;;;;2.38;1.10;;;29.10;68.80;;;;;;5048945;28;20047;-61
2022/08/01 09:46:31;;;;;;;1.27;1.10;;;28.30;74.10;;;;;;5047951;28;20072;-63
2022/08/01 09:49:05;;;;;;;1.38;1.17;;;27.60;77.50;;;;;;5049119;28;20033;-60
2022/08/01 09:51:32;;;;;;;1.17;1.08;;;27.20;85.10;;;;;;5031124;28;20495;-60
2022/08/01 09:53:59;;;;;;;1.83;1.10;;;26.80;93.00;;;;;;5049802;28;20041;-62
2022/08/01 09:56:25;;;;;;;2.05;1.10;;;26.50;94.30;;;;;;5048380;28;20500;-60
2022/08/01 09:58:51;;;;;;;3.90;1.30;;;26.10;99.90;;;;;;5050748;28;20626;-61
2022/08/01 10:01:20;;;;;;;5.05;1.95;;;25.60;99.90;;;;;;5049938;28;20052;-60
2022/08/01 10:03:46;;;;;;;1.23;1.13;;;25.30;99.90;;;;;;5050420;28;20052;-59
2022/08/01 10:06:22;;;;;;;1.80;1.30;;;25.00;99.90;;;;;;5049789;28;20091;-65
2022/08/01 10:08:48;;;;;;;3.10;1.30;;;24.80;99.90;;;;;;5047593;28;20059;-62
2022/08/01 10:11:14;;;;;;;2.08;1.50;;;24.60;99.90;;;;;;5050280;28;20496;-60
2022/08/01 10:13:40;;;;;;;4.55;1.77;;;24.30;99.90;;;;;;5050751;28;20116;-60
2022/08/01 10:16:06;;;;;;;3.45;1.40;;;24.10;99.90;;;;;;5050443;28;20036;-61
2022/08/01 10:18:35;;;;;;;1.77;1.60;;;24.30;99.90;;;;;;5050409;28;20049;-60
2022/08/01 10:21:02;;;;;;;1.63;1.13;;;24.60;99.90;;;;;;5050061;28;20029;-61
2022/08/01 10:23:34;;;;;;;4.03;0.80;;;25.00;99.90;;;;;;5050324;28;20392;-60
2022/08/01 10:26:01;;;;;;;1.25;0.70;;;25.30;99.90;;;;;;5047899;28;20017;-61
2022/08/01 10:28:30;;;;;;;1.33;0.60;;;25.10;99.90;;;;;;5050890;28;20020;-59
2022/08/01 10:30:58;;;;;;;0.70;0.60;;;24.80;99.90;;;;;;5049480;28;20120;-61
2022/08/01 10:33:24;;;;;;;1.30;0.60;;;24.60;99.90;;;;;;5049635;28;20488;-62
2022/08/01 10:35:51;;;;;;;3.13;0.65;;;24.50;99.90;;;;;;5049987;28;20035;-63
2022/08/01 10:38:17;;;;;;;0.50;0.50;;;24.40;99.90;;;;;;5031438;28;20032;-60
2022/08/01 10:40:43;;;;;;;1.98;0.50;;;24.20;99.90;;;;;;5050784;28;20096;-60
2022/08/01 10:43:14;;;;;;;2.83;0.60;;;24.00;99.90;;;;;;5049814;28;20025;-59
2022/08/01 10:45:42;;;;;;;0.50;0.50;;;23.90;99.90;;;;;;5049652;28;20116;-60
2022/08/01 10:48:28;;;;;;;0.70;0.60;;;24.00;99.90;;;;;;5048480;28;20033;-59
2022/08/01 10:50:57;;;;;;;0.65;0.50;;;24.00;99.90;;;;;;5050271;28;20037;-59
2022/08/01 10:53:25;;;;;;;0.85;0.47;;;24.20;99.90;;;;;;5049081;28;20036;-60
2022/08/01 10:55:58;;;;;;;2.55;0.77;;;24.60;99.90;;;;;;5049139;28;20111;-66
2022/08/01 10:58:38;;;;;;;2.00;0.70;;;25.30;99.90;;;;;;5050128;28;20029;-60
2022/08/01 11:01:24;;;;;;;13.50;1.50;;;26.90;99.90;;;;;;5048062;28;20033;-60
2022/08/01 11:04:11;;;;;;;4.35;1.60;;;28.10;91.80;;;;;;5049956;28;20025;-60
2022/08/01 11:06:46;;;;;;;19.88;1.23;;;28.50;90.40;;;;;;5047220;28;20022;-60
2022/08/01 11:09:11;;;;;;;0.35;0.30;;;28.50;90.80;;;;;;5050124;28;20041;-60
2022/08/01 11:12:05;;;;;;;0.52;0.40;;;28.60;83.20;;;;;;5049709;28;20076;-60
2022/08/01 11:14:32;;;;;;;0.30;0.30;;;28.70;83.30;;;;;;5050007;28;20029;-60
2022/08/01 11:17:33;;;;;;;0.63;0.38;;;28.90;81.30;;;;;;5048552;28;20017;-60
2022/08/01 11:20:14;;;;;;;2.25;0.47;;;29.70;77.10;;;;;;5046029;28;20381;-65
2022/08/01 11:22:59;;;;;;;1.33;0.40;;;30.40;73.60;;;;;;5048901;28;20159;-60
2022/08/01 11:25:37;;;;;;;1.48;0.50;;;30.70;69.30;;;;;;5047140;28;20033;-61
2022/08/01 11:28:19;;;;;;;0.63;0.50;;;30.60;67.40;;;;;;5046848;28;20025;-61
2022/08/01 11:30:50;;;;;;;0.85;0.40;;;30.50;67.10;;;;;;5046440;28;20039;-60
2022/08/01 11:33:16;;;;;;;;;;;30.30;68.40;;;;;;5039126;28;20048;-62
2022/08/01 11:36:10;;;;;;;0.55;0.55;;;30.30;68.00;;;;;;5047908;28;19925;-60
2022/08/01 11:38:37;;;;;;;0.82;0.70;;;30.00;67.50;;;;;;5047963;28;20029;-62
2022/08/01 11:41:17;;;;;;;2.17;0.80;;;29.90;67.20;;;;;;5047930;28;20013;-60
2022/08/01 11:44:15;;;;;;;0.65;0.65;;;29.80;67.80;;;;;;5049479;28;20075;-60
2022/08/01 11:46:59;;;;;;;2.30;0.60;;;29.60;66.70;;;;;;5047605;28;20963;-60
2022/08/01 11:49:34;;;;;;;0.70;0.70;;;29.30;70.00;;;;;;5047615;28;20385;-60
2022/08/01 11:52:15;;;;;;;0.80;0.80;;;29.30;69.70;;;;;;5047085;28;20025;-60
2022/08/01 11:54:47;;;;;;;0.95;0.40;;;29.20;69.50;;;;;;5047781;28;20025;-60
2022/08/01 11:57:18;;;;;;;0.70;0.70;;;29.30;71.10;;;;;;5046105;28;20445;-60
2022/08/01 11:59:47;;;;;;;;;;;29.20;71.60;;;;;;5049230;28;20083;-62
2022/08/01 12:02:20;;;;;;;1.42;0.80;;;28.90;71.30;;;;;;5048734;28;19943;-60
2022/08/01 12:05:06;;;;;;;1.23;0.80;;;28.90;71.50;;;;;;5047876;28;20029;-60
2022/08/01 12:07:33;;;;;;;0.63;0.63;;;28.80;71.90;;;;;;5021662;28;20032;-65
2022/08/01 12:10:11;;;;;;;0.77;0.77;;;28.60;73.00;;;;;;5048255;28;20025;-64
2022/08/01 12:12:42;;;;;;;0.85;0.82;;;28.70;73.40;;;;;;5049156;28;20116;-62
2022/08/01 12:15:09;;;;;;;0.85;0.85;;;28.80;73.40;;;;;;5047589;28;20040;-60
2022/08/01 12:17:43;;;;;;;0.60;0.60;;;29.00;73.10;;;;;;5048331;28;20079;-63
2022/08/01 12:20:12;;;;;;;0.90;0.70;;;29.00;71.90;;;;;;5047748;28;20476;-60
2022/08/01 12:22:38;;;;;;;1.02;0.77;;;29.10;70.60;;;;;;5049126;28;20061;-59
2022/08/01 12:25:12;;;;;;;0.60;0.60;;;28.90;71.70;;;;;;5046811;28;20029;-59
2022/08/01 12:27:39;;;;;;;0.63;0.63;;;28.80;71.60;;;;;;5047497;28;20025;-60
2022/08/01 12:30:10;;;;;;;1.17;0.82;;;28.70;72.60;;;;;;5047453;28;20033;-61
2022/08/01 12:32:37;;;;;;;0.80;0.80;;;28.60;73.00;;;;;;5047945;28;20033;-60
2022/08/01 12:35:05;;;;;;;0.70;0.70;;;28.60;73.40;;;;;;5047028;28;20076;-61
2022/08/01 12:37:34;;;;;;;0.98;0.90;;;28.40;73.60;;;;;;5047734;28;20100;-63
2022/08/01 12:40:00;;;;;;;1.52;0.90;;;28.40;73.30;;;;;;5047103;28;20075;-59
2022/08/01 12:42:27;;;;;;;0.70;0.70;;;28.20;74.50;;;;;;5047617;28;20500;-60
2022/08/01 12:44:53;;;;;;;0.98;0.90;;;28.20;76.60;;;;;;5048217;28;20033;-60
2022/08/01 12:47:20;;;;;;;4.18;1.00;;;28.30;76.40;;;;;;5048595;28;20049;-60
2022/08/01 12:49:46;;;;;;;1.30;1.17;;;28.40;75.50;;;;;;5047053;28;20108;-62
2022/08/01 12:52:14;;;;;;;1.13;1.10;;;28.50;73.10;;;;;;5048360;28;20100;-62
2022/08/01 12:55:03;;;;;;;3.28;0.90;;;28.80;72.10;;;;;;5047677;28;20021;-62
2022/08/01 12:57:29;;;;;;;1.08;1.00;;;29.00;72.90;;;;;;5036264;28;20032;-62